sensor_id;sensor_type;location;lat;lon;timestamp;pressure;altitude;pressure_sealevel;temperature;humidity
25638;BME280;13496;51.040;13.680;2023-05-02T00:03:12;99589.75;;;21.18;47.33
25638;BME280;13496;51.040;13.680;2023-05-02T00:08:15;99581.22;;;21.16;46.93
25638;BME280;13496;51.040;13.680;2023-05-02T00:13:17;99585.69;;;21.16;47.07
25638;BME280;13496;51.040;13.680;2023-05-02T00:18:18;99592.00;;;21.15;47.22
25638;BME280;13496;51.040;13.680;2023-05-02T00:23:20;99582.25;;;21.15;47.13
25638;BME280;13496;51.040;13.680;2023-05-02T00:28:22;99595.84;;;21.12;46.77
25638;BME280;13496;51.040;13.680;2023-05-02T00:33:24;99604.78;;;21.11;47.33
25638;BME280;13496;51.040;13.680;2023-05-02T00:38:25;99604.97;;;21.10;46.96
25638;BME280;13496;51.040;13.680;2023-05-02T00:43:29;99606.81;;;21.09;46.76
25638;BME280;13496;51.040;13.680;2023-05-02T00:48:31;99603.59;;;21.07;47.15
25638;BME280;13496;51.040;13.680;2023-05-02T00:53:34;99608.88;;;21.07;47.05
25638;BME280;13496;51.040;13.680;2023-05-02T00:58:40;99612.50;;;21.06;47.12
25638;BME280;13496;51.040;13.680;2023-05-02T01:03:48;99611.91;;;21.04;47.12
25638;BME280;13496;51.040;13.680;2023-05-02T01:14:24;99598.09;;;21.02;46.98
25638;BME280;13496;51.040;13.680;2023-05-02T01:19:31;99603.38;;;21.02;47.12
25638;BME280;13496;51.040;13.680;2023-05-02T01:24:39;99593.84;;;21.01;47.20
25638;BME280;13496;51.040;13.680;2023-05-02T01:29:42;99585.34;;;20.99;47.21
25638;BME280;13496;51.040;13.680;2023-05-02T01:34:45;99591.63;;;20.98;46.82
25638;BME280;13496;51.040;13.680;2023-05-02T01:39:49;99594.25;;;20.98;47.13
25638;BME280;13496;51.040;13.680;2023-05-02T01:44:53;99598.16;;;20.95;47.18
25638;BME280;13496;51.040;13.680;2023-05-02T01:49:56;99596.31;;;20.96;47.05
25638;BME280;13496;51.040;13.680;2023-05-02T01:54:59;99586.97;;;20.93;47.19
25638;BME280;13496;51.040;13.680;2023-05-02T02:00:02;99582.50;;;20.94;47.02
25638;BME280;13496;51.040;13.680;2023-05-02T02:05:15;99584.56;;;20.92;47.28
25638;BME280;13496;51.040;13.680;2023-05-02T02:10:19;99593.47;;;20.91;47.25
25638;BME280;13496;51.040;13.680;2023-05-02T02:15:27;99590.25;;;20.89;47.07
25638;BME280;13496;51.040;13.680;2023-05-02T02:20:30;99599.19;;;20.88;47.23
25638;BME280;13496;51.040;13.680;2023-05-02T02:25:33;99603.63;;;20.87;47.27
25638;BME280;13496;51.040;13.680;2023-05-02T02:30:36;99610.13;;;20.85;47.13
25638;BME280;13496;51.040;13.680;2023-05-02T02:35:45;99622.31;;;20.86;46.82
25638;BME280;13496;51.040;13.680;2023-05-02T02:40:56;99612.97;;;20.83;47.29
25638;BME280;13496;51.040;13.680;2023-05-02T02:51:40;99636.91;;;20.82;46.96
25638;BME280;13496;51.040;13.680;2023-05-02T02:56:46;99648.28;;;20.82;47.25
25638;BME280;13496;51.040;13.680;2023-05-02T03:01:58;99657.41;;;20.79;47.06
25638;BME280;13496;51.040;13.680;2023-05-02T03:07:03;99660.47;;;20.76;47.07
25638;BME280;13496;51.040;13.680;2023-05-02T03:12:05;99663.69;;;20.78;46.71
25638;BME280;13496;51.040;13.680;2023-05-02T03:17:08;99669.38;;;20.75;47.05
25638;BME280;13496;51.040;13.680;2023-05-02T03:22:11;99674.63;;;20.75;46.95
25638;BME280;13496;51.040;13.680;2023-05-02T03:27:13;99680.13;;;20.74;46.97
25638;BME280;13496;51.040;13.680;2023-05-02T03:32:17;99686.44;;;20.73;47.21
25638;BME280;13496;51.040;13.680;2023-05-02T03:37:19;99689.25;;;20.71;47.05
25638;BME280;13496;51.040;13.680;2023-05-02T03:42:20;99693.72;;;20.71;47.13
25638;BME280;13496;51.040;13.680;2023-05-02T03:47:22;99695.53;;;20.70;47.31
25638;BME280;13496;51.040;13.680;2023-05-02T03:52:24;99700.19;;;20.68;47.17
25638;BME280;13496;51.040;13.680;2023-05-02T03:57:29;99707.28;;;20.68;47.30
25638;BME280;13496;51.040;13.680;2023-05-02T04:02:31;99715.41;;;20.66;47.07
25638;BME280;13496;51.040;13.680;2023-05-02T04:07:34;99720.47;;;20.68;46.83
25638;BME280;13496;51.040;13.680;2023-05-02T04:12:38;99731.03;;;20.68;46.86
25638;BME280;13496;51.040;13.680;2023-05-02T04:17:41;99744.03;;;20.69;47.01
25638;BME280;13496;51.040;13.680;2023-05-02T04:22:44;99756.78;;;20.66;47.46
25638;BME280;13496;51.040;13.680;2023-05-02T04:27:48;99768.97;;;20.67;47.70
25638;BME280;13496;51.040;13.680;2023-05-02T04:32:54;99766.72;;;20.70;47.00
25638;BME280;13496;51.040;13.680;2023-05-02T04:37:58;99787.59;;;20.65;47.79
25638;BME280;13496;51.040;13.680;2023-05-02T04:43:01;99790.22;;;20.65;47.18
25638;BME280;13496;51.040;13.680;2023-05-02T04:48:10;99804.84;;;20.68;47.00
25638;BME280;13496;51.040;13.680;2023-05-02T04:53:13;99816.81;;;20.70;47.30
25638;BME280;13496;51.040;13.680;2023-05-02T04:58:15;99821.06;;;20.71;46.94
25638;BME280;13496;51.040;13.680;2023-05-02T05:03:18;99826.34;;;20.71;46.97
25638;BME280;13496;51.040;13.680;2023-05-02T05:08:20;99833.25;;;20.72;46.94
25638;BME280;13496;51.040;13.680;2023-05-02T05:13:21;99835.47;;;20.75;47.00
25638;BME280;13496;51.040;13.680;2023-05-02T05:18:24;99856.59;;;20.75;46.83
25638;BME280;13496;51.040;13.680;2023-05-02T05:23:26;99864.50;;;20.75;46.91
25638;BME280;13496;51.040;13.680;2023-05-02T05:28:29;99871.19;;;20.78;47.05
25638;BME280;13496;51.040;13.680;2023-05-02T05:33:31;99871.41;;;20.76;47.18
25638;BME280;13496;51.040;13.680;2023-05-02T05:38:33;99879.91;;;20.78;46.86
25638;BME280;13496;51.040;13.680;2023-05-02T05:43:36;99884.81;;;20.82;46.86
25638;BME280;13496;51.040;13.680;2023-05-02T05:48:38;99890.50;;;20.85;47.20
25638;BME280;13496;51.040;13.680;2023-05-02T05:53:40;99895.75;;;20.85;46.63
25638;BME280;13496;51.040;13.680;2023-05-02T05:58:44;99907.94;;;20.86;47.22
25638;BME280;13496;51.040;13.680;2023-05-02T06:03:48;99917.28;;;20.89;46.70
25638;BME280;13496;51.040;13.680;2023-05-02T06:08:54;99921.53;;;20.90;46.89
25638;BME280;13496;51.040;13.680;2023-05-02T06:13:56;99927.22;;;20.93;47.05
25638;BME280;13496;51.040;13.680;2023-05-02T06:18:58;99939.41;;;20.94;47.10
25638;BME280;13496;51.040;13.680;2023-05-02T06:24:00;99954.81;;;20.97;46.65
25638;BME280;13496;51.040;13.680;2023-05-02T06:29:01;99966.81;;;21.00;46.83
25638;BME280;13496;51.040;13.680;2023-05-02T06:34:04;99977.78;;;21.03;46.21
25638;BME280;13496;51.040;13.680;2023-05-02T06:39:05;99981.03;;;21.06;46.83
25638;BME280;13496;51.040;13.680;2023-05-02T06:44:07;99986.50;;;21.04;46.08
25638;BME280;13496;51.040;13.680;2023-05-02T06:49:09;99995.03;;;21.06;45.87
25638;BME280;13496;51.040;13.680;2023-05-02T06:54:11;99997.28;;;21.02;45.87
25638;BME280;13496;51.040;13.680;2023-05-02T06:59:13;100006.81;;;21.03;46.09
25638;BME280;13496;51.040;13.680;2023-05-02T07:04:17;100024.03;;;21.06;45.69
25638;BME280;13496;51.040;13.680;2023-05-02T07:09:18;100022.88;;;21.15;45.61
25638;BME280;13496;51.040;13.680;2023-05-02T07:14:20;100027.75;;;21.18;45.60
25638;BME280;13496;51.040;13.680;2023-05-02T07:19:22;100031.00;;;21.20;45.86
25638;BME280;13496;51.040;13.680;2023-05-02T07:24:24;100042.78;;;21.18;45.17
25638;BME280;13496;51.040;13.680;2023-05-02T07:29:25;100056.53;;;21.13;45.48
25638;BME280;13496;51.040;13.680;2023-05-02T07:34:27;100056.34;;;21.08;45.15
25638;BME280;13496;51.040;13.680;2023-05-02T07:39:29;100078.88;;;21.11;45.08
25638;BME280;13496;51.040;13.680;2023-05-02T07:44:31;100074.84;;;21.15;45.37
25638;BME280;13496;51.040;13.680;2023-05-02T07:49:34;100096.13;;;21.13;44.40
25638;BME280;13496;51.040;13.680;2023-05-02T07:54:37;100085.44;;;21.21;45.96
25638;BME280;13496;51.040;13.680;2023-05-02T07:59:38;100087.66;;;21.18;44.25
25638;BME280;13496;51.040;13.680;2023-05-02T08:04:40;100107.31;;;21.15;44.21
25638;BME280;13496;51.040;13.680;2023-05-02T08:09:42;100118.25;;;21.12;43.92
25638;BME280;13496;51.040;13.680;2023-05-02T08:14:43;100112.41;;;21.23;45.12
25638;BME280;13496;51.040;13.680;2023-05-02T08:19:45;100122.66;;;21.33;45.84
25638;BME280;13496;51.040;13.680;2023-05-02T08:24:47;100125.31;;;21.40;45.82
25638;BME280;13496;51.040;13.680;2023-05-02T08:29:49;100131.44;;;21.47;45.76
25638;BME280;13496;51.040;13.680;2023-05-02T08:34:53;100135.28;;;21.44;45.81
25638;BME280;13496;51.040;13.680;2023-05-02T08:39:56;100140.16;;;21.41;43.79
25638;BME280;13496;51.040;13.680;2023-05-02T08:44:57;100148.09;;;21.47;45.56
25638;BME280;13496;51.040;13.680;2023-05-02T08:49:59;100159.47;;;21.48;43.84
25638;BME280;13496;51.040;13.680;2023-05-02T08:55:02;100160.72;;;21.59;45.29
25638;BME280;13496;51.040;13.680;2023-05-02T09:00:04;100166.81;;;21.59;43.49
25638;BME280;13496;51.040;13.680;2023-05-02T09:05:10;100167.22;;;21.56;44.80
25638;BME280;13496;51.040;13.680;2023-05-02T09:10:13;100177.97;;;21.61;45.43
25638;BME280;13496;51.040;13.680;2023-05-02T09:15:15;100184.75;;;21.70;44.74
25638;BME280;13496;51.040;13.680;2023-05-02T09:20:17;100183.94;;;21.77;45.11
25638;BME280;13496;51.040;13.680;2023-05-02T09:25:19;100194.91;;;21.73;44.34
25638;BME280;13496;51.040;13.680;2023-05-02T09:30:23;100197.78;;;21.85;44.81
25638;BME280;13496;51.040;13.680;2023-05-02T09:35:25;100198.78;;;21.78;43.45
25638;BME280;13496;51.040;13.680;2023-05-02T09:40:27;100202.03;;;21.80;43.72
25638;BME280;13496;51.040;13.680;2023-05-02T09:45:30;100201.88;;;21.94;43.47
25638;BME280;13496;51.040;13.680;2023-05-02T09:50:36;100200.84;;;21.89;43.38
25638;BME280;13496;51.040;13.680;2023-05-02T09:55:38;100200.47;;;21.92;43.88
25638;BME280;13496;51.040;13.680;2023-05-02T10:00:41;100205.56;;;22.00;44.51
25638;BME280;13496;51.040;13.680;2023-05-02T10:05:45;100213.22;;;21.82;43.76
25638;BME280;13496;51.040;13.680;2023-05-02T10:10:55;100219.72;;;21.86;44.35
25638;BME280;13496;51.040;13.680;2023-05-02T10:16:02;100224.84;;;21.94;44.21
25638;BME280;13496;51.040;13.680;2023-05-02T10:21:12;100224.47;;;22.04;44.29
25638;BME280;13496;51.040;13.680;2023-05-02T10:26:16;100233.63;;;22.08;44.54
25638;BME280;13496;51.040;13.680;2023-05-02T10:31:18;100225.66;;;22.01;43.77
25638;BME280;13496;51.040;13.680;2023-05-02T10:36:21;100231.53;;;21.90;44.83
25638;BME280;13496;51.040;13.680;2023-05-02T10:41:25;100235.31;;;22.15;44.52
25638;BME280;13496;51.040;13.680;2023-05-02T10:46:35;100245.88;;;22.15;43.80
25638;BME280;13496;51.040;13.680;2023-05-02T10:51:39;100244.41;;;22.13;44.41
25638;BME280;13496;51.040;13.680;2023-05-02T11:07:26;100249.22;;;21.89;43.89
25638;BME280;13496;51.040;13.680;2023-05-02T11:12:48;100253.31;;;21.92;44.75
25638;BME280;13496;51.040;13.680;2023-05-02T11:33:39;100246.31;;;22.39;42.64
25638;BME280;13496;51.040;13.680;2023-05-02T11:38:40;100250.19;;;22.43;42.34
25638;BME280;13496;51.040;13.680;2023-05-02T11:43:42;100257.53;;;22.54;43.12
25638;BME280;13496;51.040;13.680;2023-05-02T11:48:44;100250.84;;;22.71;43.32
25638;BME280;13496;51.040;13.680;2023-05-02T11:53:46;100261.81;;;22.55;43.11
25638;BME280;13496;51.040;13.680;2023-05-02T11:58:57;100255.31;;;22.64;42.69
25638;BME280;13496;51.040;13.680;2023-05-02T12:04:06;100266.28;;;22.61;42.46
25638;BME280;13496;51.040;13.680;2023-05-02T12:09:12;100253.69;;;22.57;41.95
25638;BME280;13496;51.040;13.680;2023-05-02T12:14:14;100259.75;;;22.51;42.35
25638;BME280;13496;51.040;13.680;2023-05-02T12:19:16;100263.59;;;22.35;42.35
25638;BME280;13496;51.040;13.680;2023-05-02T12:24:18;100259.56;;;22.32;42.40
25638;BME280;13496;51.040;13.680;2023-05-02T12:29:20;100269.13;;;22.53;43.26
25638;BME280;13496;51.040;13.680;2023-05-02T12:34:35;100253.28;;;22.60;42.74
25638;BME280;13496;51.040;13.680;2023-05-02T12:39:41;100257.75;;;22.59;43.11
25638;BME280;13496;51.040;13.680;2023-05-02T12:44:45;100251.03;;;22.63;42.65
25638;BME280;13496;51.040;13.680;2023-05-02T12:49:57;100263.84;;;22.60;43.16
25638;BME280;13496;51.040;13.680;2023-05-02T12:55:19;100266.28;;;22.41;42.28
25638;BME280;13496;51.040;13.680;2023-05-02T13:00:21;100270.75;;;22.41;44.22
25638;BME280;13496;51.040;13.680;2023-05-02T13:05:23;100266.50;;;22.66;42.95
25638;BME280;13496;51.040;13.680;2023-05-02T13:10:25;100268.97;;;22.75;43.10
25638;BME280;13496;51.040;13.680;2023-05-02T13:15:27;100266.91;;;22.83;42.56
25638;BME280;13496;51.040;13.680;2023-05-02T13:20:29;100263.84;;;22.80;42.41
25638;BME280;13496;51.040;13.680;2023-05-02T13:25:30;100267.75;;;22.77;42.33
25638;BME280;13496;51.040;13.680;2023-05-02T13:30:32;100270.97;;;22.73;41.70
25638;BME280;13496;51.040;13.680;2023-05-02T13:35:34;100269.16;;;22.80;42.61
25638;BME280;13496;51.040;13.680;2023-05-02T13:40:36;100272.00;;;22.78;42.43
25638;BME280;13496;51.040;13.680;2023-05-02T13:45:37;100281.75;;;22.51;43.65
25638;BME280;13496;51.040;13.680;2023-05-02T13:50:39;100278.69;;;22.54;43.40
25638;BME280;13496;51.040;13.680;2023-05-02T13:55:41;100283.38;;;22.52;41.94
25638;BME280;13496;51.040;13.680;2023-05-02T14:00:42;100280.13;;;22.43;42.59
25638;BME280;13496;51.040;13.680;2023-05-02T14:05:44;100282.34;;;22.46;44.40
25638;BME280;13496;51.040;13.680;2023-05-02T14:10:46;100284.22;;;22.66;43.11
25638;BME280;13496;51.040;13.680;2023-05-02T14:15:48;100279.13;;;22.64;42.64
25638;BME280;13496;51.040;13.680;2023-05-02T14:20:49;100281.16;;;22.56;41.88
25638;BME280;13496;51.040;13.680;2023-05-02T14:25:51;100279.13;;;22.51;42.39
25638;BME280;13496;51.040;13.680;2023-05-02T14:30:53;100275.44;;;22.52;42.02
25638;BME280;13496;51.040;13.680;2023-05-02T14:35:55;100285.78;;;22.47;43.36
25638;BME280;13496;51.040;13.680;2023-05-02T14:40:56;100286.59;;;22.41;42.25
25638;BME280;13496;51.040;13.680;2023-05-02T14:45:58;100315.88;;;22.33;42.00
25638;BME280;13496;51.040;13.680;2023-05-02T14:51:02;100316.47;;;22.28;42.79
25638;BME280;13496;51.040;13.680;2023-05-02T14:56:04;100331.47;;;22.14;42.17
25638;BME280;13496;51.040;13.680;2023-05-02T15:01:14;100343.41;;;22.10;41.96
25638;BME280;13496;51.040;13.680;2023-05-02T15:06:16;100351.94;;;22.12;42.20
25638;BME280;13496;51.040;13.680;2023-05-02T15:11:17;100358.06;;;22.13;42.33
25638;BME280;13496;51.040;13.680;2023-05-02T15:16:19;100359.28;;;22.10;41.97
25638;BME280;13496;51.040;13.680;2023-05-02T15:21:21;100360.47;;;22.08;42.50
25638;BME280;13496;51.040;13.680;2023-05-02T15:26:23;100377.16;;;22.08;43.59
25638;BME280;13496;51.040;13.680;2023-05-02T15:31:26;100374.50;;;22.08;42.54
25638;BME280;13496;51.040;13.680;2023-05-02T15:36:28;100388.16;;;22.12;41.97
25638;BME280;13496;51.040;13.680;2023-05-02T15:41:30;100399.31;;;22.07;42.42
25638;BME280;13496;51.040;13.680;2023-05-02T15:46:32;100403.78;;;22.07;42.57
25638;BME280;13496;51.040;13.680;2023-05-02T15:51:34;100399.47;;;21.99;43.02
25638;BME280;13496;51.040;13.680;2023-05-02T15:56:36;100407.19;;;22.01;42.14
25638;BME280;13496;51.040;13.680;2023-05-02T16:01:38;100410.47;;;22.03;42.48
25638;BME280;13496;51.040;13.680;2023-05-02T16:06:39;100420.59;;;21.99;43.79
25638;BME280;13496;51.040;13.680;2023-05-02T16:11:41;100420.34;;;21.94;42.74
25638;BME280;13496;51.040;13.680;2023-05-02T16:16:44;100439.88;;;21.93;42.80
25638;BME280;13496;51.040;13.680;2023-05-02T16:21:46;100433.94;;;21.91;43.94
25638;BME280;13496;51.040;13.680;2023-05-02T16:26:48;100439.88;;;21.93;43.12
25638;BME280;13496;51.040;13.680;2023-05-02T16:31:49;100436.41;;;21.92;42.81
25638;BME280;13496;51.040;13.680;2023-05-02T16:36:51;100445.75;;;21.88;42.32
25638;BME280;13496;51.040;13.680;2023-05-02T16:41:53;100451.41;;;21.85;42.95
25638;BME280;13496;51.040;13.680;2023-05-02T16:46:55;100462.16;;;21.84;43.28
25638;BME280;13496;51.040;13.680;2023-05-02T16:51:56;100461.91;;;21.79;42.84
25638;BME280;13496;51.040;13.680;2023-05-02T16:56:58;100463.91;;;21.77;42.89
25638;BME280;13496;51.040;13.680;2023-05-02T17:02:03;100476.50;;;21.74;43.49
25638;BME280;13496;51.040;13.680;2023-05-02T17:07:04;100483.19;;;21.70;43.47
25638;BME280;13496;51.040;13.680;2023-05-02T17:12:09;100482.75;;;21.67;44.20
25638;BME280;13496;51.040;13.680;2023-05-02T17:17:11;100483.78;;;21.66;43.64
25638;BME280;13496;51.040;13.680;2023-05-02T17:22:13;100492.50;;;21.66;44.68
25638;BME280;13496;51.040;13.680;2023-05-02T17:27:15;100500.81;;;21.63;45.02
25638;BME280;13496;51.040;13.680;2023-05-02T17:32:17;100510.72;;;21.61;45.02
25638;BME280;13496;51.040;13.680;2023-05-02T17:37:19;100511.75;;;21.60;44.14
25638;BME280;13496;51.040;13.680;2023-05-02T17:42:20;100528.97;;;21.56;44.81
25638;BME280;13496;51.040;13.680;2023-05-02T17:47:22;100549.09;;;21.57;45.55
25638;BME280;13496;51.040;13.680;2023-05-02T17:52:26;100542.38;;;21.55;45.08
25638;BME280;13496;51.040;13.680;2023-05-02T17:57:27;100550.66;;;21.52;45.39
25638;BME280;13496;51.040;13.680;2023-05-02T18:02:29;100555.94;;;21.52;45.24
25638;BME280;13496;51.040;13.680;2023-05-02T18:07:31;100557.13;;;21.49;45.68
25638;BME280;13496;51.040;13.680;2023-05-02T18:12:33;100572.97;;;21.49;45.52
25638;BME280;13496;51.040;13.680;2023-05-02T18:17:34;100576.63;;;21.48;45.76
25638;BME280;13496;51.040;13.680;2023-05-02T18:22:37;100576.19;;;21.44;45.34
25638;BME280;13496;51.040;13.680;2023-05-02T18:27:39;100577.00;;;21.45;45.57
25638;BME280;13496;51.040;13.680;2023-05-02T18:32:41;100592.38;;;21.41;45.80
25638;BME280;13496;51.040;13.680;2023-05-02T18:37:42;100595.22;;;21.40;46.01
25638;BME280;13496;51.040;13.680;2023-05-02T18:42:45;100604.13;;;21.39;46.43
25638;BME280;13496;51.040;13.680;2023-05-02T18:47:47;100603.31;;;21.38;45.99
25638;BME280;13496;51.040;13.680;2023-05-02T18:52:51;100622.00;;;21.37;46.03
25638;BME280;13496;51.040;13.680;2023-05-02T18:57:53;100626.47;;;21.36;46.39
25638;BME280;13496;51.040;13.680;2023-05-02T19:02:55;100622.34;;;21.34;46.39
25638;BME280;13496;51.040;13.680;2023-05-02T19:07:57;100632.09;;;21.33;46.58
25638;BME280;13496;51.040;13.680;2023-05-02T19:12:59;100623.88;;;21.28;46.61
25638;BME280;13496;51.040;13.680;2023-05-02T19:18:01;100620.25;;;21.29;46.34
25638;BME280;13496;51.040;13.680;2023-05-02T19:23:03;100632.78;;;21.27;46.44
25638;BME280;13496;51.040;13.680;2023-05-02T19:28:04;100644.72;;;21.23;46.56
25638;BME280;13496;51.040;13.680;2023-05-02T19:33:07;100641.84;;;21.18;46.81
25638;BME280;13496;51.040;13.680;2023-05-02T19:38:09;100647.94;;;21.18;46.81
25638;BME280;13496;51.040;13.680;2023-05-02T19:43:10;100656.19;;;21.15;47.07
25638;BME280;13496;51.040;13.680;2023-05-02T19:48:12;100662.50;;;21.14;46.67
25638;BME280;13496;51.040;13.680;2023-05-02T19:53:14;100652.91;;;21.13;46.93
25638;BME280;13496;51.040;13.680;2023-05-02T19:58:15;100661.84;;;21.12;46.95
25638;BME280;13496;51.040;13.680;2023-05-02T20:03:18;100674.41;;;21.10;46.87
25638;BME280;13496;51.040;13.680;2023-05-02T20:08:19;100674.03;;;21.13;46.69
25638;BME280;13496;51.040;13.680;2023-05-02T20:13:21;100688.59;;;21.09;47.05
25638;BME280;13496;51.040;13.680;2023-05-02T20:18:23;100694.22;;;21.06;46.96
25638;BME280;13496;51.040;13.680;2023-05-02T20:23:24;100693.78;;;21.02;47.10
25638;BME280;13496;51.040;13.680;2023-05-02T20:28:26;100707.16;;;21.01;47.15
25638;BME280;13496;51.040;13.680;2023-05-02T20:33:28;100707.16;;;21.01;46.98
25638;BME280;13496;51.040;13.680;2023-05-02T20:38:29;100706.69;;;20.97;47.28
25638;BME280;13496;51.040;13.680;2023-05-02T20:43:31;100708.31;;;20.98;47.28
25638;BME280;13496;51.040;13.680;2023-05-02T20:48:35;100711.16;;;20.97;47.09
25638;BME280;13496;51.040;13.680;2023-05-02T20:53:37;100710.34;;;20.96;47.13
25638;BME280;13496;51.040;13.680;2023-05-02T20:58:39;100711.69;;;20.92;47.20
25638;BME280;13496;51.040;13.680;2023-05-02T21:03:41;100714.34;;;20.92;47.27
25638;BME280;13496;51.040;13.680;2023-05-02T21:08:43;100716.50;;;20.89;47.06
25638;BME280;13496;51.040;13.680;2023-05-02T21:13:44;100719.50;;;20.86;47.14
25638;BME280;13496;51.040;13.680;2023-05-02T21:18:46;100721.50;;;20.84;47.35
25638;BME280;13496;51.040;13.680;2023-05-02T21:23:48;100725.78;;;20.85;46.58
25638;BME280;13496;51.040;13.680;2023-05-02T21:28:51;100726.94;;;20.82;47.36
25638;BME280;13496;51.040;13.680;2023-05-02T21:33:52;100728.78;;;20.82;47.17
25638;BME280;13496;51.040;13.680;2023-05-02T21:38:54;100728.78;;;20.82;47.12
25638;BME280;13496;51.040;13.680;2023-05-02T21:43:56;100733.22;;;20.81;47.21
25638;BME280;13496;51.040;13.680;2023-05-02T21:48:57;100737.69;;;20.81;47.00
25638;BME280;13496;51.040;13.680;2023-05-02T21:53:59;100743.31;;;20.77;47.44
25638;BME280;13496;51.040;13.680;2023-05-02T21:59:01;100741.03;;;20.74;47.47
25638;BME280;13496;51.040;13.680;2023-05-02T22:04:03;100740.69;;;20.77;47.19
25638;BME280;13496;51.040;13.680;2023-05-02T22:09:05;100745.66;;;20.72;47.27
25638;BME280;13496;51.040;13.680;2023-05-02T22:14:11;100741.22;;;20.73;47.22
25638;BME280;13496;51.040;13.680;2023-05-02T22:19:13;100745.66;;;20.72;47.10
25638;BME280;13496;51.040;13.680;2023-05-02T22:24:15;100743.91;;;20.65;47.27
25638;BME280;13496;51.040;13.680;2023-05-02T22:29:17;100749.03;;;20.66;46.97
25638;BME280;13496;51.040;13.680;2023-05-02T22:34:19;100757.56;;;20.68;47.07
25638;BME280;13496;51.040;13.680;2023-05-02T22:39:21;100752.81;;;20.64;46.88
25638;BME280;13496;51.040;13.680;2023-05-02T22:44:22;100756.28;;;20.64;47.26
25638;BME280;13496;51.040;13.680;2023-05-02T22:49:24;100752.34;;;20.60;47.34
25638;BME280;13496;51.040;13.680;2023-05-02T22:54:26;100748.72;;;20.61;46.77
25638;BME280;13496;51.040;13.680;2023-05-02T22:59:28;100758.97;;;20.56;47.14
25638;BME280;13496;51.040;13.680;2023-05-02T23:04:30;100762.44;;;20.57;47.28
25638;BME280;13496;51.040;13.680;2023-05-02T23:09:34;100759.50;;;20.51;47.93
25638;BME280;13496;51.040;13.680;2023-05-02T23:14:36;100759.50;;;20.51;47.28
25638;BME280;13496;51.040;13.680;2023-05-02T23:19:38;100761.50;;;20.49;47.45
25638;BME280;13496;51.040;13.680;2023-05-02T23:24:39;100755.72;;;20.46;47.56
25638;BME280;13496;51.040;13.680;2023-05-02T23:29:41;100769.56;;;20.48;47.28
25638;BME280;13496;51.040;13.680;2023-05-02T23:34:43;100763.81;;;20.44;47.24
25638;BME280;13496;51.040;13.680;2023-05-02T23:39:45;100772.34;;;20.46;47.35
25638;BME280;13496;51.040;13.680;2023-05-02T23:44:47;100771.53;;;20.46;47.70
25638;BME280;13496;51.040;13.680;2023-05-02T23:49:49;100775.53;;;20.42;47.44
25638;BME280;13496;51.040;13.680;2023-05-02T23:54:50;100774.03;;;20.39;47.42
25638;BME280;13496;51.040;13.680;2023-05-02T23:59:53;100777.53;;;20.40;47.66
